createdAt,value
2019-05-10T00:00:43.049Z,33.30
2019-05-10T00:03:28.811Z,36.63
2019-05-10T00:06:14.609Z,30.07
2019-05-10T00:08:47.533Z,29.53
2019-05-10T00:11:39.986Z,28.90
2019-05-10T00:14:35.260Z,24.50
2019-05-10T00:17:31.428Z,28.47
2019-05-10T00:19:58.748Z,29.43
2019-05-10T00:22:26.208Z,31.00
2019-05-10T00:25:04.023Z,30.33
2019-05-10T00:27:24.488Z,26.33
2019-05-10T00:29:51.827Z,27.23
2019-05-10T00:32:19.191Z,26.27
2019-05-10T00:34:46.456Z,21.37
2019-05-10T00:37:13.859Z,21.70
2019-05-10T00:39:41.121Z,23.57
2019-05-10T00:42:08.672Z,16.90
2019-05-10T00:44:36.079Z,21.13
2019-05-10T00:47:03.401Z,25.70
2019-05-10T00:49:30.759Z,27.00
2019-05-10T00:51:57.957Z,24.90
2019-05-10T00:54:25.316Z,17.47
2019-05-10T00:56:52.732Z,19.03
2019-05-10T00:59:20.175Z,22.07
2019-05-10T01:01:47.729Z,19.67
2019-05-10T01:04:15.061Z,19.40
2019-05-10T01:06:42.329Z,22.17
2019-05-10T01:09:11.633Z,22.40
2019-05-10T01:11:39.280Z,26.23
2019-05-10T01:14:06.711Z,26.93
2019-05-10T01:16:34.016Z,24.13
2019-05-10T01:19:01.499Z,30.63
2019-05-10T01:21:28.948Z,32.67
2019-05-10T01:23:56.197Z,38.47
2019-05-10T01:26:23.566Z,40.87
2019-05-10T01:28:51.029Z,37.13
2019-05-10T01:31:18.441Z,31.53
2019-05-10T01:33:45.777Z,27.57
2019-05-10T01:36:13.225Z,24.80
2019-05-10T01:38:40.583Z,28.37
2019-05-10T01:41:07.890Z,28.03
2019-05-10T01:43:35.237Z,34.33
2019-05-10T01:46:02.586Z,39.77
2019-05-10T01:48:30.037Z,41.67
2019-05-10T01:50:57.588Z,42.67
2019-05-10T01:53:24.931Z,44.50
2019-05-10T01:55:53.073Z,40.40
2019-05-10T01:58:20.620Z,40.13
2019-05-10T02:00:48.063Z,34.13
2019-05-10T02:03:15.420Z,33.17
2019-05-10T02:05:42.881Z,28.23
2019-05-10T02:08:10.231Z,33.83
2019-05-10T02:10:39.831Z,29.43
2019-05-10T02:13:07.239Z,33.50
2019-05-10T02:15:34.578Z,30.60
2019-05-10T02:18:01.903Z,27.63
2019-05-10T02:20:29.244Z,33.80
2019-05-10T02:22:56.719Z,31.43
2019-05-10T02:25:23.976Z,36.40
2019-05-10T02:27:51.306Z,32.83
2019-05-10T02:30:19.250Z,29.30
2019-05-10T02:32:46.694Z,27.33
2019-05-10T02:35:15.843Z,22.07
2019-05-10T02:37:43.064Z,21.60
2019-05-10T02:40:10.905Z,20.80
2019-05-10T02:42:38.192Z,24.27
2019-05-10T02:45:05.879Z,24.57
2019-05-10T02:47:33.227Z,27.03
2019-05-10T02:50:00.439Z,21.60
2019-05-10T02:52:27.767Z,20.53
2019-05-10T02:54:55.316Z,22.70
2019-05-10T02:57:22.857Z,17.27
2019-05-10T02:59:50.464Z,22.97
2019-05-10T03:02:18.020Z,30.23
2019-05-10T03:04:45.743Z,27.90
2019-05-10T03:07:16.001Z,27.30
2019-05-10T03:09:47.363Z,22.10
2019-05-10T03:12:24.080Z,22.33
2019-05-10T03:14:56.579Z,19.37
2019-05-10T03:17:25.532Z,26.63
2019-05-10T03:19:53.804Z,18.80
2019-05-10T03:22:22.881Z,22.13
2019-05-10T03:24:50.369Z,23.63
2019-05-10T03:27:17.673Z,28.77
2019-05-10T03:29:45.424Z,26.57
2019-05-10T03:32:12.792Z,21.47
2019-05-10T03:34:40.119Z,24.20
2019-05-10T03:37:07.563Z,21.97
2019-05-10T03:39:34.874Z,26.63
2019-05-10T03:42:02.221Z,20.50
2019-05-10T03:44:29.544Z,24.60
2019-05-10T03:46:56.884Z,24.80
2019-05-10T03:49:24.236Z,19.60
2019-05-10T03:51:51.571Z,21.53
2019-05-10T03:54:18.932Z,24.90
2019-05-10T03:56:46.353Z,28.13
2019-05-10T03:59:13.987Z,21.57
2019-05-10T04:01:41.250Z,17.50
2019-05-10T04:04:09.614Z,22.37
2019-05-10T04:06:37.306Z,19.27
2019-05-10T04:09:04.977Z,19.43
2019-05-10T04:11:32.347Z,19.53
2019-05-10T04:14:03.425Z,23.40
2019-05-10T04:16:30.771Z,20.70
2019-05-10T04:18:58.130Z,23.70
2019-05-10T04:21:25.550Z,23.83
2019-05-10T04:23:52.885Z,20.10
2019-05-10T04:26:20.303Z,21.90
2019-05-10T04:28:47.653Z,19.63
2019-05-10T04:31:14.983Z,18.03
2019-05-10T04:33:42.428Z,19.47
2019-05-10T04:36:12.637Z,19.87
2019-05-10T04:38:38.983Z,17.20
2019-05-10T04:41:06.237Z,14.53
2019-05-10T04:43:34.027Z,16.13
2019-05-10T04:46:01.405Z,16.03
2019-05-10T04:48:28.961Z,15.40
2019-05-10T04:50:56.311Z,16.93
2019-05-10T04:53:23.638Z,15.13
2019-05-10T04:55:50.979Z,12.40
2019-05-10T04:58:18.407Z,14.33
2019-05-10T05:00:45.763Z,15.03
2019-05-10T05:03:13.100Z,13.23
2019-05-10T05:05:40.646Z,17.17
2019-05-10T05:08:07.972Z,13.80
2019-05-10T05:10:35.290Z,16.27
2019-05-10T05:13:02.668Z,17.80
2019-05-10T05:15:30.079Z,19.60
2019-05-10T05:17:57.499Z,23.33
2019-05-10T05:20:24.821Z,22.60
2019-05-10T05:22:52.093Z,18.07
2019-05-10T05:25:22.002Z,17.10
2019-05-10T05:27:48.604Z,13.47
2019-05-10T05:30:16.235Z,15.30
2019-05-10T05:32:44.646Z,13.43
2019-05-10T05:35:15.360Z,12.97
2019-05-10T05:37:42.210Z,14.07
2019-05-10T05:40:09.810Z,13.03
2019-05-10T05:42:37.169Z,13.20
2019-05-10T05:45:05.001Z,13.43
2019-05-10T05:47:37.463Z,14.70
2019-05-10T05:50:01.725Z,14.43
2019-05-10T05:52:29.083Z,17.60
2019-05-10T05:54:57.477Z,19.20
2019-05-10T05:57:27.625Z,20.33
2019-05-10T05:59:57.626Z,19.80
2019-05-10T06:02:23.845Z,16.43
2019-05-10T06:04:51.287Z,17.60
2019-05-10T06:07:18.639Z,18.17
2019-05-10T06:09:46.014Z,16.90
2019-05-10T06:12:14.270Z,14.03
2019-05-10T06:14:43.097Z,14.90
2019-05-10T06:17:11.471Z,14.13
2019-05-10T06:19:38.891Z,12.73
2019-05-10T06:22:06.988Z,10.07
2019-05-10T06:24:34.615Z,9.83
2019-05-10T06:27:03.498Z,10.27
2019-05-10T06:29:31.039Z,9.90
2019-05-10T06:31:58.996Z,10.03
2019-05-10T06:34:31.726Z,12.03
2019-05-10T06:36:55.777Z,12.80
2019-05-10T06:39:23.834Z,9.30
2019-05-10T06:41:56.262Z,10.07
2019-05-10T06:44:25.090Z,10.17
2019-05-10T06:46:49.355Z,11.10
2019-05-10T06:49:16.667Z,11.50
2019-05-10T06:51:49.022Z,9.23
2019-05-10T06:54:13.177Z,11.67
2019-05-10T06:56:40.729Z,8.63
2019-05-10T06:59:13.441Z,7.63
2019-05-10T07:01:38.485Z,10.83
2019-05-10T07:04:06.477Z,10.77
2019-05-10T07:06:33.714Z,8.37
2019-05-10T07:09:01.147Z,7.67
2019-05-10T07:11:28.475Z,8.57
2019-05-10T07:13:55.931Z,10.03
2019-05-10T07:16:25.542Z,8.70
2019-05-10T07:18:54.725Z,8.23
2019-05-10T07:21:21.463Z,8.13
2019-05-10T07:23:48.717Z,8.93
2019-05-10T07:26:23.178Z,9.03
2019-05-10T07:28:46.372Z,8.60
2019-05-10T07:31:13.852Z,9.07
2019-05-10T07:33:41.271Z,8.80
2019-05-10T07:36:14.798Z,8.53
2019-05-10T07:38:38.027Z,11.67
2019-05-10T07:41:07.730Z,7.43
2019-05-10T07:43:35.196Z,8.03
2019-05-10T07:46:06.059Z,6.80
2019-05-10T07:48:31.672Z,7.40
2019-05-10T07:50:59.025Z,7.67
2019-05-10T07:53:26.237Z,8.20
2019-05-10T07:55:53.690Z,6.93
2019-05-10T07:58:21.023Z,6.73
2019-05-10T08:00:48.270Z,6.90
2019-05-10T08:03:18.806Z,7.17
2019-05-10T08:05:46.287Z,7.33
2019-05-10T08:08:13.917Z,8.47
2019-05-10T08:10:41.337Z,8.00
2019-05-10T08:13:08.689Z,8.37
2019-05-10T08:15:38.143Z,9.37
2019-05-10T08:18:05.177Z,7.07
2019-05-10T08:20:46.634Z,8.10
2019-05-10T08:23:02.835Z,7.97
2019-05-10T08:25:39.627Z,8.60
2019-05-10T08:28:03.273Z,7.87
2019-05-10T08:30:51.199Z,8.03
2019-05-10T08:33:14.560Z,9.20
2019-05-10T08:35:45.932Z,7.33
2019-05-10T08:38:10.216Z,6.57
2019-05-10T08:40:38.161Z,8.37
2019-05-10T08:43:08.881Z,6.60
2019-05-10T08:45:38.773Z,9.37
2019-05-10T08:48:06.853Z,8.27
2019-05-10T08:50:48.781Z,7.30
2019-05-10T08:53:10.510Z,8.27
2019-05-10T08:55:32.108Z,9.60
2019-05-10T08:57:59.681Z,7.50
2019-05-10T09:00:40.965Z,8.23
2019-05-10T09:03:00.922Z,5.63
2019-05-10T09:05:29.061Z,6.80
2019-05-10T09:07:54.849Z,5.77
2019-05-10T09:10:22.344Z,8.93
2019-05-10T09:12:54.197Z,6.50
2019-05-10T09:15:18.656Z,7.53
2019-05-10T09:17:45.991Z,8.93
2019-05-10T09:20:20.943Z,9.27
2019-05-10T09:22:42.699Z,5.60
2019-05-10T09:25:12.625Z,6.87
2019-05-10T09:27:39.654Z,7.73
2019-05-10T09:30:08.030Z,8.40
2019-05-10T09:32:39.678Z,6.47
2019-05-10T09:35:09.369Z,6.43
2019-05-10T09:37:34.735Z,7.37
2019-05-10T09:40:09.554Z,5.63
2019-05-10T09:42:39.733Z,9.80
2019-05-10T09:45:03.139Z,7.13
2019-05-10T09:47:32.868Z,8.07
2019-05-10T09:50:02.100Z,7.03
2019-05-10T09:52:28.896Z,9.03
2019-05-10T09:54:56.988Z,5.60
2019-05-10T09:57:24.393Z,6.23
2019-05-10T09:59:51.640Z,8.47
2019-05-10T10:02:19.088Z,9.60
2019-05-10T10:04:47.328Z,9.00
2019-05-10T10:07:18.739Z,7.03
2019-05-10T10:09:45.017Z,6.53
2019-05-10T10:12:13.073Z,7.03
2019-05-10T10:14:43.251Z,5.00
2019-05-10T10:17:09.561Z,5.20
2019-05-10T10:19:40.375Z,4.50
2019-05-10T10:22:11.202Z,6.43
2019-05-10T10:24:38.684Z,4.50
2019-05-10T10:27:07.286Z,4.57
2019-05-10T10:29:35.944Z,4.90
2019-05-10T10:32:03.083Z,4.63
2019-05-10T10:34:32.545Z,5.00
2019-05-10T10:36:59.478Z,5.40
2019-05-10T10:39:27.708Z,5.27
2019-05-10T10:41:57.097Z,6.37
2019-05-10T10:44:24.282Z,4.60
2019-05-10T10:46:51.759Z,5.50
2019-05-10T10:49:23.216Z,5.33
2019-05-10T10:51:48.065Z,5.37
2019-05-10T10:54:17.639Z,3.97
2019-05-10T10:56:44.646Z,4.60
2019-05-10T10:59:11.888Z,4.83
2019-05-10T11:01:49.852Z,3.93
2019-05-10T11:04:09.769Z,4.40
2019-05-10T11:06:37.378Z,3.50
2019-05-10T11:09:06.217Z,4.47
2019-05-10T11:11:38.822Z,4.43
2019-05-10T11:14:07.067Z,4.03
2019-05-10T11:16:31.977Z,3.80
2019-05-10T11:19:03.880Z,5.67
2019-05-10T11:21:31.188Z,5.07
2019-05-10T11:23:57.912Z,3.43
2019-05-10T11:26:26.787Z,6.37
2019-05-10T11:28:54.282Z,5.50
2019-05-10T11:31:21.624Z,4.80
2019-05-10T11:33:53.805Z,4.20
2019-05-10T11:36:18.057Z,4.43
2019-05-10T11:38:46.934Z,2.83
2019-05-10T11:41:21.344Z,4.30
2019-05-10T11:43:45.938Z,3.73
2019-05-10T11:46:13.166Z,4.50
2019-05-10T11:48:42.217Z,3.27
2019-05-10T11:51:12.287Z,4.00
2019-05-10T11:53:41.372Z,4.47
2019-05-10T11:56:14.018Z,3.27
2019-05-10T11:58:44.360Z,9.70
2019-05-10T12:01:14.784Z,4.47
2019-05-10T12:03:36.202Z,3.90
2019-05-10T12:06:06.390Z,4.40
2019-05-10T12:08:32.856Z,3.67
2019-05-10T12:11:12.432Z,3.47
2019-05-10T12:13:32.504Z,4.60
2019-05-10T12:15:58.441Z,4.30
2019-05-10T12:18:27.041Z,4.37
2019-05-10T12:21:07.348Z,3.83
2019-05-10T12:23:29.985Z,3.97
2019-05-10T12:26:59.149Z,4.17
2019-05-10T12:28:28.506Z,5.03
2019-05-10T12:30:51.341Z,4.03
2019-05-10T12:33:25.069Z,7.77
2019-05-10T12:35:48.139Z,3.77
2019-05-10T12:38:15.588Z,4.67
2019-05-10T12:40:45.844Z,3.93
2019-05-10T12:43:13.608Z,4.30
2019-05-10T12:45:41.825Z,3.23
2019-05-10T12:48:09.466Z,3.13
2019-05-10T12:50:36.868Z,3.40
2019-05-10T12:53:13.885Z,3.80
2019-05-10T12:55:33.512Z,5.43
2019-05-10T12:58:00.974Z,4.93
2019-05-10T13:00:28.517Z,5.27
2019-05-10T13:03:10.304Z,4.60
2019-05-10T13:05:31.709Z,1.53
2019-05-10T13:07:54.357Z,2.40
2019-05-10T13:10:21.734Z,2.23
2019-05-10T13:12:49.015Z,1.40
2019-05-10T13:15:17.568Z,1.33
2019-05-10T13:17:50.725Z,2.53
2019-05-10T13:20:14.344Z,2.20
2019-05-10T13:22:41.865Z,1.53
2019-05-10T13:25:09.480Z,2.23
2019-05-10T13:27:36.936Z,3.47
2019-05-10T13:30:05.360Z,2.47
2019-05-10T13:32:32.821Z,2.83
2019-05-10T13:35:00.352Z,2.13
2019-05-10T13:37:27.663Z,2.03
2019-05-10T13:39:58.277Z,4.40
2019-05-10T13:42:26.575Z,4.50
2019-05-10T13:44:53.917Z,3.17
2019-05-10T13:47:21.285Z,3.83
2019-05-10T13:49:49.331Z,2.77
2019-05-10T13:52:16.883Z,6.27
2019-05-10T13:54:44.198Z,3.67
2019-05-10T13:57:11.515Z,3.27
2019-05-10T13:59:38.864Z,3.33
2019-05-10T14:02:06.208Z,3.50
2019-05-10T14:04:34.139Z,2.87
2019-05-10T14:07:02.561Z,4.67
2019-05-10T14:09:29.930Z,4.43
2019-05-10T14:11:57.149Z,9.90
2019-05-10T14:14:26.782Z,6.60
2019-05-10T14:16:53.633Z,5.33
2019-05-10T14:19:23.133Z,4.70
2019-05-10T14:21:50.062Z,6.20
2019-05-10T14:24:17.376Z,5.20
2019-05-10T14:26:44.592Z,6.37
2019-05-10T14:29:12.044Z,6.40
2019-05-10T14:31:39.392Z,5.63
2019-05-10T14:34:15.569Z,8.17
2019-05-10T14:36:40.849Z,6.00
2019-05-10T14:39:06.391Z,4.90
2019-05-10T14:41:33.711Z,6.40
2019-05-10T14:44:01.049Z,6.60
2019-05-10T14:46:28.468Z,9.40
2019-05-10T14:48:55.778Z,9.77
2019-05-10T14:51:37.916Z,9.57
2019-05-10T14:53:52.479Z,9.43
2019-05-10T14:56:19.724Z,8.40
2019-05-10T14:58:46.942Z,8.03
2019-05-10T15:01:14.172Z,6.03
2019-05-10T15:03:45.630Z,5.57
2019-05-10T15:06:11.007Z,3.20
2019-05-10T15:08:38.466Z,3.17
2019-05-10T15:11:05.814Z,3.43
2019-05-10T15:13:35.206Z,2.83
2019-05-10T15:16:02.429Z,3.13
2019-05-10T15:18:29.759Z,2.63
2019-05-10T15:20:57.085Z,5.23
2019-05-10T15:23:24.424Z,7.33
2019-05-10T15:25:57.089Z,5.03
2019-05-10T15:28:21.213Z,6.57
2019-05-10T15:30:52.268Z,6.60
2019-05-10T15:33:17.579Z,6.77
2019-05-10T15:35:45.749Z,8.47
2019-05-10T15:38:13.931Z,7.37
2019-05-10T15:40:44.365Z,7.00
2019-05-10T15:43:16.861Z,8.77
2019-05-10T15:45:39.731Z,7.87
2019-05-10T15:48:07.085Z,9.20
2019-05-10T15:50:38.595Z,7.97
2019-05-10T15:53:03.817Z,5.37
2019-05-10T15:55:31.200Z,7.53
2019-05-10T15:58:00.268Z,6.33
2019-05-10T16:00:37.990Z,5.63
2019-05-10T16:02:56.915Z,7.33
2019-05-10T16:05:41.279Z,4.17
2019-05-10T16:07:56.291Z,4.67
2019-05-10T16:10:28.469Z,3.80
2019-05-10T16:12:53.005Z,4.37
2019-05-10T16:15:21.308Z,4.13
2019-05-10T16:17:53.807Z,3.90
2019-05-10T16:20:18.016Z,3.70
2019-05-10T16:22:45.257Z,4.40
2019-05-10T16:25:12.570Z,6.40
2019-05-10T16:27:44.663Z,6.70
2019-05-10T16:30:11.962Z,9.37
2019-05-10T16:32:39.027Z,11.47
2019-05-10T16:35:12.821Z,11.73
2019-05-10T16:37:35.702Z,10.93
2019-05-10T16:40:03.228Z,10.53
2019-05-10T16:42:34.396Z,13.70
2019-05-10T16:44:59.688Z,12.93
2019-05-10T16:47:27.057Z,12.50
2019-05-10T16:49:55.257Z,10.97
2019-05-10T16:52:25.866Z,9.43
2019-05-10T16:54:51.740Z,13.97
2019-05-10T16:57:19.000Z,8.63
2019-05-10T16:59:46.331Z,7.43
2019-05-10T17:02:13.586Z,9.07
2019-05-10T17:04:40.912Z,6.03
2019-05-10T17:07:12.905Z,7.83
2019-05-10T17:09:37.497Z,6.87
2019-05-10T17:12:04.845Z,7.10
2019-05-10T17:14:32.172Z,6.83
2019-05-10T17:17:00.126Z,7.40
2019-05-10T17:19:33.308Z,6.07
2019-05-10T17:21:56.879Z,7.00
2019-05-10T17:24:25.508Z,9.37
2019-05-10T17:26:52.977Z,8.57
2019-05-10T17:29:20.398Z,8.97
2019-05-10T17:31:47.798Z,8.77
2019-05-10T17:34:22.191Z,6.73
2019-05-10T17:36:44.278Z,6.17
2019-05-10T17:39:11.719Z,5.23
2019-05-10T17:41:39.055Z,6.83
2019-05-10T17:44:06.321Z,8.27
2019-05-10T17:46:33.626Z,10.30
2019-05-10T17:49:00.968Z,7.53
2019-05-10T17:51:28.413Z,7.27
2019-05-10T17:54:01.333Z,7.00
2019-05-10T17:56:25.001Z,7.00
2019-05-10T17:58:52.435Z,8.80
2019-05-10T18:01:19.829Z,9.80
2019-05-10T18:03:47.137Z,9.23
2019-05-10T18:06:23.679Z,8.33
2019-05-10T18:08:43.513Z,7.03
2019-05-10T18:11:10.930Z,5.27
2019-05-10T18:13:40.763Z,6.90
2019-05-10T18:16:09.387Z,7.17
2019-05-10T18:18:46.291Z,8.30
2019-05-10T18:21:06.044Z,7.90
2019-05-10T18:23:33.488Z,7.23
2019-05-10T18:26:00.708Z,7.50
2019-05-10T18:28:28.049Z,7.47
2019-05-10T18:30:55.276Z,6.67
2019-05-10T18:33:22.647Z,6.17
2019-05-10T18:35:52.855Z,6.27
2019-05-10T18:38:19.016Z,8.20
2019-05-10T18:40:46.256Z,7.43
2019-05-10T18:43:13.481Z,6.90
2019-05-10T18:45:40.915Z,9.00
2019-05-10T18:48:08.135Z,8.90
2019-05-10T18:50:39.658Z,7.60
2019-05-10T18:53:04.704Z,7.23
2019-05-10T18:55:32.063Z,6.70
2019-05-10T18:57:59.403Z,7.40
2019-05-10T19:00:26.626Z,7.13
2019-05-10T19:02:55.157Z,6.53
2019-05-10T19:05:25.221Z,7.10
2019-05-10T19:08:02.987Z,8.77
2019-05-10T19:10:23.439Z,4.87
2019-05-10T19:12:59.863Z,7.10
2019-05-10T19:15:20.219Z,5.90
2019-05-10T19:17:47.555Z,6.17
2019-05-10T19:20:16.231Z,6.00
2019-05-10T19:22:44.030Z,5.80
2019-05-10T19:25:14.195Z,5.63
2019-05-10T19:27:44.143Z,5.53
2019-05-10T19:30:10.456Z,4.10
2019-05-10T19:32:37.773Z,4.10
2019-05-10T19:35:05.112Z,5.80
2019-05-10T19:37:34.486Z,5.53
2019-05-10T19:40:01.904Z,5.77
2019-05-10T19:42:31.521Z,3.20
2019-05-10T19:44:58.358Z,4.03
2019-05-10T19:47:25.692Z,5.03
2019-05-10T19:49:53.574Z,8.83
2019-05-10T19:52:25.890Z,5.90
2019-05-10T19:54:50.447Z,6.83
2019-05-10T19:57:18.908Z,8.17
2019-05-10T19:59:48.599Z,7.83
2019-05-10T20:02:15.567Z,8.60
2019-05-10T20:04:42.796Z,7.23
2019-05-10T20:07:10.031Z,8.50
2019-05-10T20:09:37.277Z,10.63
2019-05-10T20:12:04.547Z,10.27
2019-05-10T20:14:31.890Z,8.67
2019-05-10T20:17:02.341Z,7.00
2019-05-10T20:19:29.781Z,8.03
2019-05-10T20:21:57.139Z,14.07
2019-05-10T20:24:24.469Z,9.73
2019-05-10T20:26:51.832Z,11.13
2019-05-10T20:29:19.155Z,12.97
2019-05-10T20:31:46.544Z,8.17
2019-05-10T20:34:13.873Z,8.70
2019-05-10T20:36:41.673Z,8.57
2019-05-10T20:39:08.963Z,8.87
2019-05-10T20:41:36.234Z,13.40
2019-05-10T20:44:03.573Z,8.60
2019-05-10T20:46:30.788Z,10.90
2019-05-10T20:48:58.125Z,7.93
2019-05-10T20:51:25.456Z,8.93
2019-05-10T20:53:52.719Z,7.87
2019-05-10T20:56:20.011Z,10.63
2019-05-10T20:58:47.269Z,11.27
2019-05-10T21:01:14.594Z,8.47
2019-05-10T21:03:41.924Z,10.07
2019-05-10T21:06:09.231Z,10.10
2019-05-10T21:08:36.590Z,8.37
2019-05-10T21:11:03.860Z,10.70
2019-05-10T21:13:31.299Z,10.83
2019-05-10T21:15:58.604Z,10.47
2019-05-10T21:18:25.865Z,9.07
2019-05-10T21:20:53.143Z,10.30
2019-05-10T21:23:20.465Z,10.33
2019-05-10T21:25:47.792Z,6.63
2019-05-10T21:28:15.133Z,8.63
2019-05-10T21:30:42.473Z,7.87
2019-05-10T21:33:09.826Z,7.83
2019-05-10T21:35:37.170Z,8.77
2019-05-10T21:38:04.486Z,4.93
2019-05-10T21:40:31.802Z,6.67
2019-05-10T21:42:59.133Z,4.60
2019-05-10T21:45:26.385Z,6.80
2019-05-10T21:47:53.766Z,7.10
2019-05-10T21:50:20.999Z,6.60
2019-05-10T21:52:48.219Z,5.57
2019-05-10T21:55:15.549Z,7.63
2019-05-10T21:57:42.777Z,6.73
2019-05-10T22:00:11.021Z,5.00
2019-05-10T22:02:38.652Z,5.73
2019-05-10T22:05:06.193Z,4.47
2019-05-10T22:07:33.533Z,5.47
2019-05-10T22:10:00.793Z,8.03
2019-05-10T22:12:28.128Z,6.90
2019-05-10T22:14:55.617Z,8.63
2019-05-10T22:17:22.915Z,10.43
2019-05-10T22:19:50.136Z,8.27
2019-05-10T22:22:17.484Z,8.63
2019-05-10T22:24:45.980Z,6.97
2019-05-10T22:27:13.361Z,7.10
2019-05-10T22:29:40.687Z,9.97
2019-05-10T22:32:08.043Z,8.83
2019-05-10T22:34:35.251Z,8.73
2019-05-10T22:37:02.591Z,11.30
2019-05-10T22:39:29.915Z,7.97
2019-05-10T22:41:57.339Z,10.73
2019-05-10T22:44:25.766Z,9.17
2019-05-10T22:46:54.099Z,8.60
2019-05-10T22:49:21.408Z,10.37
2019-05-10T22:51:48.764Z,6.40
2019-05-10T22:54:16.084Z,5.93
2019-05-10T22:56:43.114Z,8.87
2019-05-10T22:59:10.433Z,6.33
2019-05-10T23:01:37.869Z,8.30
2019-05-10T23:04:05.202Z,7.63
2019-05-10T23:06:32.500Z,9.00
2019-05-10T23:08:59.853Z,6.70
2019-05-10T23:11:27.164Z,5.33
2019-05-10T23:13:54.536Z,7.43
2019-05-10T23:16:21.971Z,8.27
2019-05-10T23:18:49.222Z,6.17
2019-05-10T23:21:16.556Z,9.97
2019-05-10T23:23:43.932Z,5.70
2019-05-10T23:26:11.153Z,5.97
2019-05-10T23:28:38.465Z,8.00
2019-05-10T23:31:05.803Z,6.20
2019-05-10T23:33:33.154Z,6.33
2019-05-10T23:36:00.492Z,5.57
2019-05-10T23:38:27.800Z,4.50
2019-05-10T23:40:55.159Z,4.70
2019-05-10T23:43:22.495Z,9.17
2019-05-10T23:45:50.419Z,7.23
2019-05-10T23:48:17.790Z,6.97
2019-05-10T23:50:45.023Z,6.07
2019-05-10T23:53:12.280Z,9.03
2019-05-10T23:55:39.475Z,6.83
2019-05-10T23:58:07.000Z,8.30
